Solitude, Indiana
Current Conditions -  °F | °C
As of 11:15 PM on Monday 22 Dec 2014 (Local Time) from KCUL Reporting Station
Overcast Overcast  
Wind Chill: 51°   Ceiling: 800
Heat Index: 51°   Visibility: 7mi
Dew Point: 51°   Wind: 12mph
Humidity: 100%   Direction: 160°SSE
Pressure: 29.62"   Gusts: NA
Location:  37.9469°N, 87.9016°W
Report Text: KCUL 230515Z AUTO 16010KT 7SM BKN008 OVC014 11/11 A2962 RMK AO2 T01080108
Loading
Personal Weather Stations






























Interactive Weather Map New forecast layout! Learn more

10-Day Weather Forecast

Advertisements
Track Severe Weather on mobile